createdAt,value
2018-04-13T00:00:14.824Z,87.23
2018-04-13T00:02:49.322Z,85.63
2018-04-13T00:05:22.846Z,88.10
2018-04-13T00:07:56.410Z,93.77
2018-04-13T00:10:30.910Z,91.23
2018-04-13T00:13:04.673Z,98.10
2018-04-13T00:15:38.192Z,97.93
2018-04-13T00:18:11.730Z,94.93
2018-04-13T00:20:45.739Z,94.60
2018-04-13T00:23:19.396Z,96.10
2018-04-13T00:25:53.259Z,92.80
2018-04-13T00:28:26.905Z,96.13
2018-04-13T00:31:01.103Z,95.27
2018-04-13T00:33:35.179Z,98.00
2018-04-13T00:36:08.822Z,97.00
2018-04-13T00:38:42.366Z,96.30
2018-04-13T00:41:16.070Z,90.33
2018-04-13T00:43:49.927Z,92.83
2018-04-13T00:46:23.460Z,95.90
2018-04-13T00:48:57.114Z,92.20
2018-04-13T00:51:30.910Z,97.07
2018-04-13T00:54:04.711Z,92.87
2018-04-13T00:56:39.078Z,93.00
2018-04-13T00:59:12.665Z,93.13
2018-04-13T01:01:46.334Z,94.60
2018-04-13T01:04:20.146Z,82.40
2018-04-13T01:06:53.942Z,87.10
2018-04-13T01:09:27.512Z,89.37
2018-04-13T01:12:01.225Z,85.37
2018-04-13T01:14:35.104Z,89.10
2018-04-13T01:17:08.751Z,87.53
2018-04-13T01:19:42.405Z,84.00
2018-04-13T01:22:16.202Z,81.53
2018-04-13T01:24:49.806Z,81.23
2018-04-13T01:27:23.463Z,82.63
2018-04-13T01:29:57.146Z,81.47
2018-04-13T01:32:30.836Z,74.87
2018-04-13T01:35:04.351Z,80.53
2018-04-13T01:37:38.002Z,77.60
2018-04-13T01:40:11.774Z,74.13
2018-04-13T01:42:45.434Z,81.77
2018-04-13T01:45:19.263Z,84.40
2018-04-13T01:47:53.016Z,71.80
2018-04-13T01:50:26.711Z,81.77
2018-04-13T01:53:01.302Z,74.23
2018-04-13T01:55:34.963Z,72.07
2018-04-13T01:58:08.535Z,71.30
2018-04-13T02:00:42.326Z,76.33
2018-04-13T02:03:16.040Z,71.67
2018-04-13T02:05:50.103Z,73.70
2018-04-13T02:08:24.579Z,72.60
2018-04-13T02:10:58.293Z,73.13
2018-04-13T02:13:31.968Z,71.07
2018-04-13T02:16:05.608Z,77.83
2018-04-13T02:18:39.321Z,76.27
2018-04-13T02:21:13.069Z,79.33
2018-04-13T02:23:46.630Z,75.27
2018-04-13T02:26:20.166Z,69.37
2018-04-13T02:28:53.812Z,74.70
2018-04-13T02:31:27.630Z,72.90
2018-04-13T02:34:01.183Z,69.73
2018-04-13T02:36:34.750Z,70.97
2018-04-13T02:39:08.712Z,75.23
2018-04-13T02:41:42.361Z,72.07
2018-04-13T02:44:16.115Z,67.10
2018-04-13T02:46:49.810Z,63.50
2018-04-13T02:49:23.366Z,57.70
2018-04-13T02:51:57.902Z,61.57
2018-04-13T02:54:31.432Z,54.30
2018-04-13T02:57:05.161Z,62.63
2018-04-13T02:59:39.665Z,55.40
2018-04-13T03:02:13.277Z,59.40
2018-04-13T03:04:47.011Z,53.77
2018-04-13T03:07:20.546Z,50.90
2018-04-13T03:09:54.167Z,55.27
2018-04-13T03:12:27.767Z,48.87
2018-04-13T03:15:01.906Z,54.27
2018-04-13T03:17:35.784Z,57.30
2018-04-13T03:20:09.421Z,51.47
2018-04-13T03:22:42.933Z,53.73
2018-04-13T03:25:16.430Z,50.90
2018-04-13T03:27:49.971Z,54.40
2018-04-13T03:30:24.375Z,57.20
2018-04-13T03:32:58.103Z,50.47
2018-04-13T03:35:32.183Z,51.57
2018-04-13T03:38:05.875Z,53.87
2018-04-13T03:40:39.719Z,55.47
2018-04-13T03:43:14.114Z,51.37
2018-04-13T03:45:48.505Z,48.37
2018-04-13T03:48:22.268Z,49.43
2018-04-13T03:50:56.704Z,50.77
2018-04-13T03:53:30.343Z,45.83
2018-04-13T03:56:04.039Z,45.43
2018-04-13T03:58:37.599Z,42.90
2018-04-13T04:01:11.071Z,41.70
2018-04-13T04:03:44.565Z,33.03
2018-04-13T04:08:58.161Z,35.07
2018-04-13T04:11:31.965Z,38.20
2018-04-13T04:14:05.509Z,37.03
2018-04-13T04:16:39.407Z,35.70
2018-04-13T04:19:12.937Z,42.63
2018-04-13T04:21:58.251Z,36.67
2018-04-13T04:24:43.891Z,39.67
2018-04-13T04:27:17.619Z,39.13
2018-04-13T04:29:51.118Z,40.23
2018-04-13T04:32:24.642Z,41.30
2018-04-13T04:34:58.213Z,36.93
2018-04-13T04:37:31.740Z,39.53
2018-04-13T04:40:06.162Z,42.03
2018-04-13T04:42:39.751Z,39.03
2018-04-13T04:45:13.421Z,39.30
2018-04-13T04:47:47.178Z,45.80
2018-04-13T04:50:20.893Z,41.47
2018-04-13T04:52:54.463Z,48.80
2018-04-13T04:55:27.990Z,50.47
2018-04-13T04:58:01.863Z,48.03
2018-04-13T05:00:35.498Z,48.77
2018-04-13T05:03:09.015Z,51.80
2018-04-13T05:05:42.572Z,49.40
2018-04-13T05:08:16.372Z,43.77
2018-04-13T05:10:50.052Z,43.73
2018-04-13T05:13:23.818Z,38.50
2018-04-13T05:15:57.772Z,35.53
2018-04-13T05:18:31.400Z,34.87
2018-04-13T05:21:04.985Z,34.43
2018-04-13T05:23:38.614Z,30.57
2018-04-13T05:26:12.491Z,29.23
2018-04-13T05:28:46.555Z,29.17
2018-04-13T05:31:20.183Z,26.03
2018-04-13T05:33:53.875Z,30.93
2018-04-13T05:36:27.431Z,25.23
2018-04-13T05:39:01.277Z,27.33
2018-04-13T05:41:34.889Z,27.30
2018-04-13T05:44:08.502Z,21.87
2018-04-13T05:46:42.291Z,33.90
2018-04-13T05:49:15.827Z,26.13
2018-04-13T05:51:49.514Z,29.83
2018-04-13T05:54:23.502Z,27.77
2018-04-13T05:56:57.153Z,27.47
2018-04-13T05:59:31.834Z,26.83
2018-04-13T06:02:05.451Z,25.97
2018-04-13T06:04:39.003Z,25.13
2018-04-13T06:07:12.520Z,23.23
2018-04-13T06:09:46.169Z,26.10
2018-04-13T06:12:19.722Z,25.27
2018-04-13T06:14:53.450Z,30.33
2018-04-13T06:17:27.071Z,26.40
2018-04-13T06:20:00.556Z,26.57
2018-04-13T06:22:34.096Z,24.27
2018-04-13T06:25:07.630Z,21.37
2018-04-13T06:27:41.156Z,26.57
2018-04-13T06:30:14.828Z,25.20
2018-04-13T06:32:48.553Z,24.53
2018-04-13T06:35:22.218Z,25.83
2018-04-13T06:37:57.618Z,24.30
2018-04-13T06:40:31.310Z,26.30
2018-04-13T06:43:04.939Z,22.87
2018-04-13T06:45:38.720Z,24.40
2018-04-13T06:48:12.260Z,28.40
2018-04-13T06:50:45.915Z,22.80
2018-04-13T06:53:19.824Z,26.03
2018-04-13T06:55:53.600Z,31.23
2018-04-13T06:58:27.414Z,26.10
2018-04-13T07:01:01.304Z,27.50
2018-04-13T07:03:34.833Z,29.13
2018-04-13T07:06:08.404Z,26.17
2018-04-13T07:08:42.163Z,26.57
2018-04-13T07:11:15.746Z,26.60
2018-04-13T07:13:49.495Z,30.70
2018-04-13T07:16:23.013Z,26.20
2018-04-13T07:18:56.719Z,31.10
2018-04-13T07:21:31.360Z,27.93
2018-04-13T07:24:05.627Z,28.20
2018-04-13T07:26:39.819Z,31.07
2018-04-13T07:29:14.731Z,28.73
2018-04-13T07:31:48.919Z,25.10
2018-04-13T07:34:23.237Z,29.07
2018-04-13T07:36:56.291Z,25.80
2018-04-13T07:39:29.875Z,31.07
2018-04-13T07:42:03.704Z,26.27
2018-04-13T07:44:37.255Z,30.27
2018-04-13T07:47:10.975Z,28.77
2018-04-13T07:49:44.733Z,27.83
2018-04-13T07:52:19.789Z,25.90
2018-04-13T07:54:52.914Z,27.87
2018-04-13T07:57:26.659Z,28.83
2018-04-13T08:00:00.266Z,28.57
2018-04-13T08:02:33.891Z,36.30
2018-04-13T08:05:07.610Z,38.27
2018-04-13T08:07:41.480Z,38.23
2018-04-13T08:10:15.307Z,37.37
2018-04-13T08:12:48.723Z,39.20
2018-04-13T08:15:22.240Z,44.43
2018-04-13T08:17:55.987Z,38.00
2018-04-13T08:20:29.559Z,35.27
2018-04-13T08:23:03.364Z,39.93
2018-04-13T08:25:36.922Z,39.13
2018-04-13T08:28:10.664Z,42.07
2018-04-13T08:30:44.165Z,44.67
2018-04-13T08:33:17.890Z,40.37
2018-04-13T08:35:51.662Z,48.43
2018-04-13T08:38:25.510Z,43.53
2018-04-13T08:40:59.312Z,45.23
2018-04-13T08:43:32.885Z,46.90
2018-04-13T08:46:07.690Z,49.07
2018-04-13T08:48:41.389Z,47.27
2018-04-13T08:51:15.103Z,49.63
2018-04-13T08:53:48.689Z,46.03
2018-04-13T08:56:22.264Z,51.20
2018-04-13T08:58:56.294Z,48.63
2018-04-13T09:01:30.064Z,45.87
2018-04-13T09:04:03.812Z,43.70
2018-04-13T09:06:37.717Z,49.63
2018-04-13T09:09:11.599Z,47.23
2018-04-13T09:11:45.168Z,47.40
2018-04-13T09:14:18.818Z,50.90
2018-04-13T09:16:52.708Z,47.63
2018-04-13T09:19:26.342Z,51.87
2018-04-13T09:21:59.858Z,50.33
2018-04-13T09:24:33.540Z,50.60
2018-04-13T09:27:08.157Z,53.53
2018-04-13T09:29:41.887Z,52.20
2018-04-13T09:32:15.455Z,53.50
2018-04-13T09:34:49.023Z,54.80
2018-04-13T09:37:22.542Z,50.40
2018-04-13T09:39:56.380Z,46.20
2018-04-13T09:42:29.938Z,45.63
2018-04-13T09:45:04.572Z,35.33
2018-04-13T09:47:39.476Z,37.53
2018-04-13T09:50:13.276Z,40.00
2018-04-13T09:52:46.795Z,35.90
2018-04-13T09:55:20.532Z,40.93
2018-04-13T09:57:54.074Z,39.00
2018-04-13T10:00:30.534Z,43.53
2018-04-13T10:03:09.735Z,43.53
2018-04-13T10:05:43.512Z,41.40
2018-04-13T10:08:17.173Z,39.23
2018-04-13T10:10:51.605Z,41.20
2018-04-13T10:13:25.130Z,41.97
2018-04-13T10:15:58.691Z,43.87
2018-04-13T10:18:33.235Z,50.30
2018-04-13T10:21:06.784Z,49.60
2018-04-13T10:23:41.611Z,47.83
2018-04-13T10:26:23.026Z,51.33
2018-04-13T10:28:56.644Z,48.03
2018-04-13T10:31:30.257Z,53.40
2018-04-13T10:34:03.986Z,49.03
2018-04-13T10:36:37.519Z,52.67
2018-04-13T10:39:11.086Z,46.33
2018-04-13T10:41:44.908Z,43.63
2018-04-13T10:44:18.686Z,39.93
2018-04-13T10:56:37.524Z,37.67
2018-04-13T10:59:11.322Z,37.47
2018-04-13T11:01:45.132Z,34.37
2018-04-13T11:04:18.664Z,36.70
2018-04-13T11:06:52.520Z,30.60
2018-04-13T11:09:26.225Z,32.07
2018-04-13T11:11:59.903Z,33.80
2018-04-13T11:14:33.664Z,32.17
2018-04-13T11:17:07.360Z,32.87
2018-04-13T11:19:41.050Z,29.73
2018-04-13T11:22:14.876Z,29.07
2018-04-13T11:24:48.610Z,29.37
2018-04-13T11:27:22.401Z,29.97
2018-04-13T11:29:56.037Z,32.30
2018-04-13T11:32:29.822Z,32.43
2018-04-13T11:35:03.550Z,33.10
2018-04-13T11:37:37.120Z,36.73
2018-04-13T11:40:10.764Z,35.30
2018-04-13T11:42:44.266Z,43.93
2018-04-13T11:45:18.024Z,40.20
2018-04-13T11:47:51.698Z,41.93
2018-04-13T11:50:25.361Z,45.17
2018-04-13T11:52:58.976Z,46.77
2018-04-13T11:55:32.644Z,44.23
2018-04-13T11:58:06.256Z,50.37
2018-04-13T12:00:40.020Z,50.63
2018-04-13T12:03:14.190Z,50.33
2018-04-13T12:05:47.865Z,55.20
2018-04-13T12:08:21.590Z,53.50
2018-04-13T12:10:56.141Z,49.30
2018-04-13T12:13:30.566Z,47.23
2018-04-13T12:16:04.303Z,49.63
2018-04-13T12:18:37.863Z,49.33
2018-04-13T12:21:11.621Z,55.77
2018-04-13T12:23:45.242Z,53.00
2018-04-13T12:26:18.841Z,53.07
2018-04-13T12:28:52.426Z,54.77
2018-04-13T12:31:26.755Z,54.37
2018-04-13T12:34:00.775Z,56.93
2018-04-13T12:36:34.514Z,56.00
2018-04-13T12:39:09.217Z,56.33
2018-04-13T12:41:42.972Z,57.43
2018-04-13T12:44:16.596Z,60.87
2018-04-13T12:46:50.320Z,58.80
2018-04-13T12:49:24.797Z,53.60
2018-04-13T12:51:58.368Z,57.07
2018-04-13T12:54:32.376Z,56.20
2018-04-13T12:57:05.965Z,53.53
2018-04-13T12:59:40.091Z,53.77
2018-04-13T13:02:13.688Z,53.97
2018-04-13T13:04:47.352Z,49.70
2018-04-13T13:07:21.831Z,48.87
2018-04-13T13:09:55.486Z,48.33
2018-04-13T13:12:29.173Z,48.57
2018-04-13T13:15:02.983Z,48.30
2018-04-13T13:17:36.745Z,49.00
2018-04-13T13:20:11.529Z,48.47
2018-04-13T13:22:45.022Z,60.20
2018-04-13T13:25:19.431Z,46.23
2018-04-13T13:27:53.139Z,45.87
2018-04-13T13:30:27.458Z,47.33
2018-04-13T13:33:01.555Z,56.10
2018-04-13T13:35:35.188Z,50.20
2018-04-13T13:38:09.734Z,47.43
2018-04-13T13:40:43.351Z,49.67
2018-04-13T13:43:17.067Z,47.33
2018-04-13T13:45:50.740Z,45.47
2018-04-13T13:48:25.111Z,46.43
2018-04-13T13:50:58.796Z,50.40
2018-04-13T13:53:32.402Z,43.17
2018-04-13T13:56:06.998Z,44.53
2018-04-13T13:58:40.525Z,47.17
2018-04-13T14:01:14.494Z,47.83
2018-04-13T14:16:49.649Z,49.80
2018-04-13T14:19:23.322Z,46.63
2018-04-13T14:21:57.282Z,52.33
2018-04-13T14:24:30.938Z,53.00
2018-04-13T14:27:04.838Z,45.40
2018-04-13T14:29:38.470Z,43.37
2018-04-13T14:32:12.851Z,44.70
2018-04-13T14:34:47.343Z,44.60
2018-04-13T14:37:21.926Z,45.90
2018-04-13T14:39:55.533Z,46.93
2018-04-13T14:42:29.253Z,48.57
2018-04-13T14:54:53.715Z,44.73
2018-04-13T14:57:27.628Z,45.90
2018-04-13T15:00:01.335Z,48.13
2018-04-13T15:02:35.164Z,47.17
2018-04-13T15:05:08.804Z,47.60
2018-04-13T15:07:42.446Z,45.97
2018-04-13T15:10:16.238Z,52.13
2018-04-13T15:12:49.991Z,43.67
2018-04-13T15:15:23.558Z,46.80
2018-04-13T15:17:57.501Z,48.93
2018-04-13T15:20:31.082Z,46.63
2018-04-13T15:23:04.644Z,48.93
2018-04-13T15:25:38.575Z,49.50
2018-04-13T15:28:12.295Z,44.87
2018-04-13T15:30:45.864Z,49.27
2018-04-13T15:33:19.595Z,43.13
2018-04-13T15:35:53.173Z,48.70
2018-04-13T15:38:27.246Z,47.97
2018-04-13T15:41:01.157Z,51.77
2018-04-13T15:43:34.744Z,46.37
2018-04-13T15:46:09.362Z,52.27
2018-04-13T15:48:43.964Z,46.10
2018-04-13T15:51:17.746Z,48.37
2018-04-13T15:53:51.275Z,55.03
2018-04-13T15:56:24.827Z,52.80
2018-04-13T15:58:59.269Z,51.13
2018-04-13T16:01:32.979Z,51.60
2018-04-13T16:04:06.625Z,50.33
2018-04-13T16:06:40.206Z,57.57
2018-04-13T16:09:13.923Z,53.53
2018-04-13T16:11:47.455Z,51.53
2018-04-13T16:14:21.026Z,50.57
2018-04-13T16:16:54.578Z,49.60
2018-04-13T16:19:29.203Z,48.07
2018-04-13T16:22:02.850Z,52.10
2018-04-13T16:24:36.529Z,56.00
2018-04-13T16:27:11.240Z,52.33
2018-04-13T16:29:45.271Z,56.50
2018-04-13T16:32:19.651Z,46.90
2018-04-13T16:34:53.688Z,46.73
2018-04-13T16:37:27.359Z,47.07
2018-04-13T16:40:00.913Z,50.60
2018-04-13T16:42:34.810Z,49.30
2018-04-13T16:45:08.452Z,51.13
2018-04-13T16:47:42.004Z,44.87
2018-04-13T16:50:16.575Z,48.03
2018-04-13T16:52:50.243Z,48.77
2018-04-13T16:55:24.919Z,47.37
2018-04-13T16:57:58.511Z,54.67
2018-04-13T17:00:32.206Z,49.43
2018-04-13T17:03:05.756Z,46.40
2018-04-13T17:05:39.561Z,41.47
2018-04-13T17:08:14.802Z,46.53
2018-04-13T17:10:48.402Z,45.50
2018-04-13T17:13:21.945Z,46.03
2018-04-13T17:15:55.577Z,46.80
2018-04-13T17:18:29.201Z,47.57
2018-04-13T17:21:02.977Z,43.57
2018-04-13T17:23:36.667Z,41.37
2018-04-13T17:26:10.414Z,39.20
2018-04-13T17:28:44.060Z,43.90
2018-04-13T17:31:17.703Z,43.00
2018-04-13T17:33:52.015Z,40.40
2018-04-13T17:36:25.606Z,45.80
2018-04-13T17:38:59.140Z,48.63
2018-04-13T17:41:34.398Z,48.73
2018-04-13T17:44:08.935Z,50.20
2018-04-13T17:46:42.592Z,47.60
2018-04-13T17:49:16.164Z,51.10
2018-04-13T17:51:49.987Z,52.93
2018-04-13T17:54:23.785Z,49.97
2018-04-13T17:56:57.540Z,50.97
2018-04-13T17:59:31.173Z,43.63
2018-04-13T18:15:04.943Z,52.17
2018-04-13T18:17:38.631Z,51.07
2018-04-13T18:20:12.131Z,48.53
2018-04-13T18:22:45.893Z,49.00
2018-04-13T18:25:19.452Z,49.77
2018-04-13T18:27:53.167Z,53.77
2018-04-13T18:30:27.907Z,50.13
2018-04-13T18:33:01.646Z,45.93
2018-04-13T18:35:35.510Z,49.00
2018-04-13T18:38:09.209Z,44.97
2018-04-13T18:40:43.505Z,47.37
2018-04-13T18:43:17.155Z,46.57
2018-04-13T18:45:51.226Z,47.53
2018-04-13T18:48:24.780Z,50.93
2018-04-13T18:50:58.354Z,44.37
2018-04-13T18:53:31.993Z,47.97
2018-04-13T18:56:05.613Z,53.30
2018-04-13T18:58:39.278Z,43.60
2018-04-13T19:01:12.858Z,50.80
2018-04-13T19:03:46.479Z,48.80
2018-04-13T19:06:20.002Z,49.03
2018-04-13T19:08:53.639Z,49.20
2018-04-13T19:11:27.125Z,43.73
2018-04-13T19:14:00.795Z,51.13
2018-04-13T19:16:34.419Z,43.53
2018-04-13T19:19:08.063Z,47.77
2018-04-13T19:21:41.629Z,42.73
2018-04-13T19:24:15.285Z,51.50
2018-04-13T19:26:48.840Z,45.20
2018-04-13T19:29:22.371Z,42.80
2018-04-13T19:31:57.356Z,46.10
2018-04-13T19:34:31.087Z,47.70
2018-04-13T19:37:04.687Z,52.63
2018-04-13T19:39:38.239Z,52.00
2018-04-13T19:42:12.740Z,50.97
2018-04-13T19:44:46.580Z,53.10
2018-04-13T19:47:21.203Z,56.67
2018-04-13T19:49:54.872Z,59.63
2018-04-13T19:52:29.334Z,56.33
2018-04-13T19:55:03.006Z,50.47
2018-04-13T19:57:36.834Z,54.53
2018-04-13T20:00:10.506Z,55.73
2018-04-13T20:02:44.672Z,55.33
2018-04-13T20:05:18.379Z,49.73
2018-04-13T20:07:52.382Z,54.67
2018-04-13T20:10:26.030Z,51.33
2018-04-13T20:12:59.540Z,46.07
2018-04-13T20:15:33.259Z,55.63
2018-04-13T20:18:07.539Z,43.57
2018-04-13T20:20:41.416Z,50.30
2018-04-13T20:23:15.117Z,51.83
2018-04-13T20:25:49.780Z,50.13
2018-04-13T20:28:23.379Z,47.97
2018-04-13T20:30:57.875Z,42.50
2018-04-13T20:33:31.563Z,48.70
2018-04-13T20:36:05.470Z,46.77
2018-04-13T20:38:39.104Z,46.03
2018-04-13T20:41:12.639Z,51.80
2018-04-13T20:43:46.376Z,47.30
2018-04-13T20:46:20.935Z,49.90
2018-04-13T20:48:54.655Z,49.73
2018-04-13T20:51:28.229Z,47.20
2018-04-13T20:54:01.919Z,50.27
2018-04-13T20:56:36.126Z,49.87
2018-04-13T20:59:09.712Z,50.47
2018-04-13T21:01:43.427Z,47.83
2018-04-13T21:04:17.300Z,46.53
2018-04-13T21:19:52.846Z,43.83
2018-04-13T21:22:27.951Z,44.37
2018-04-13T21:25:01.548Z,41.93
2018-04-13T21:27:35.263Z,46.43
2018-04-13T21:30:09.193Z,45.10
2018-04-13T21:32:42.795Z,45.33
2018-04-13T21:35:16.541Z,41.77
2018-04-13T21:37:51.066Z,38.13
2018-04-13T21:40:24.800Z,40.33
2018-04-13T21:42:58.343Z,42.33
2018-04-13T21:55:17.078Z,42.07
2018-04-13T21:57:50.825Z,43.33
2018-04-13T22:00:24.371Z,41.00
2018-04-13T22:02:58.040Z,38.77
2018-04-13T22:05:31.946Z,36.47
2018-04-13T22:08:06.247Z,38.90
2018-04-13T22:10:40.318Z,43.07
2018-04-13T22:13:33.119Z,44.73
2018-04-13T22:16:07.027Z,40.93
2018-04-13T22:18:40.491Z,45.17
2018-04-13T22:21:15.055Z,42.57
2018-04-13T22:23:48.732Z,46.90
2018-04-13T22:26:22.348Z,40.47
2018-04-13T22:28:55.995Z,44.80
2018-04-13T22:31:29.780Z,40.93
2018-04-13T22:34:03.577Z,41.43
2018-04-13T22:36:37.162Z,43.03
2018-04-13T22:39:11.702Z,45.73
2018-04-13T22:41:45.548Z,39.63
2018-04-13T22:44:19.980Z,40.40
2018-04-13T22:46:53.772Z,39.70
2018-04-13T22:49:27.311Z,41.30
2018-04-13T22:52:00.872Z,42.47
2018-04-13T22:54:35.135Z,45.50
2018-04-13T22:57:09.008Z,45.40
2018-04-13T22:59:42.707Z,42.87
2018-04-13T23:02:16.355Z,45.17
2018-04-13T23:04:50.080Z,43.43
2018-04-13T23:07:23.880Z,46.30
2018-04-13T23:09:57.631Z,43.27
2018-04-13T23:12:31.181Z,46.67
2018-04-13T23:15:04.928Z,54.03
2018-04-13T23:17:38.447Z,52.33
2018-04-13T23:20:12.130Z,49.73
2018-04-13T23:22:45.682Z,57.33
2018-04-13T23:25:19.249Z,48.60
2018-04-13T23:27:52.761Z,58.13
2018-04-13T23:30:26.315Z,56.03
2018-04-13T23:32:59.945Z,55.30
2018-04-13T23:35:33.481Z,57.67
2018-04-13T23:38:08.305Z,53.37
2018-04-13T23:40:41.901Z,52.13
2018-04-13T23:43:15.435Z,52.93
2018-04-13T23:45:49.097Z,52.57
2018-04-13T23:48:22.822Z,55.13
2018-04-13T23:50:56.569Z,62.80
2018-04-13T23:53:30.188Z,64.87
2018-04-13T23:56:05.031Z,62.50
2018-04-13T23:58:38.624Z,63.30
